PWSweather.com
Personal Weather Stations
Station Observations
SD92115WX
El Cerrito Stoneybluff, San Diego, CA 92115

El Cerrito StoneybluffSan Diego, CA 92115

Lat: 32.754096, Lon: -117.066705

Elevation: 420

Station Type: Davis Vantage Vue

http://stoneybluff.com

High Low Average
Temperature 80.8°F27.1°C 55.0°F12.8°C 65.5°F18.6°C
Dew Point 57.2°F14.0°C 38.7°F3.7°C 47.4°F8.6°C
Winds 9.8 mph 15.8 kmh Calm Calm 2.0 mph S3.2 kmh S
Wind Gusts 15.9 mph25.6 kmh -- 4.0 mph6.4 kmh
Humidity 90% 23% 56%
Pressure 29.92 in1013.2 mb 29.82 in1009.8 mb -
Precipitation 0.00 in0.0 mm - -
Hour Temp Dew Point Humidity Winds Wind Gusts Pressure Precip Precip Rate Daily Precip Total
12:03 AM 60.3°F15.7°C 42.1°F5.6°C 51% Calm Calm -- 29.92 in1013.2 mb 0.00 in0.0 mm 0.00 in0.0 mm 0.00 in0.0 mm
12:08 AM 59.9°F15.5°C 42.3°F5.7°C 52% Calm Calm -- 29.92 in1013.2 mb 0.00 in0.0 mm 0.00 in0.0 mm 0.00 in0.0 mm
12:13 AM 59.5°F15.3°C 42.4°F5.8°C 53% Calm Calm -- 29.92 in1013.2 mb 0.00 in0.0 mm 0.00 in0.0 mm 0.00 in0.0 mm
12:18 AM 59.5°F15.3°C 42.4°F5.8°C 53% Calm Calm -- 29.92 in1013.2 mb 0.00 in0.0 mm 0.00 in0.0 mm 0.00 in0.0 mm
12:23 AM 59.5°F15.3°C 42.8°F6.0°C 54% Calm Calm -- 29.92 in1013.2 mb 0.00 in0.0 mm 0.00 in0.0 mm 0.00 in0.0 mm
12:28 AM 59.4°F15.2°C 42.8°F6.0°C 54% Calm Calm -- 29.92 in1013.2 mb 0.00 in0.0 mm 0.00 in0.0 mm 0.00 in0.0 mm
12:33 AM 59.5°F15.3°C 43.3°F6.3°C 55% Calm Calm -- 29.92 in1013.2 mb 0.00 in0.0 mm 0.00 in0.0 mm 0.00 in0.0 mm
12:38 AM 59.5°F15.3°C 42.8°F6.0°C 54% Calm Calm -- 29.92 in1013.2 mb 0.00 in0.0 mm 0.00 in0.0 mm 0.00 in0.0 mm
12:43 AM 59.7°F15.4°C 43.0°F6.1°C 54% Calm Calm -- 29.92 in1013.2 mb 0.00 in0.0 mm 0.00 in0.0 mm 0.00 in0.0 mm
12:48 AM 59.7°F15.4°C 43.0°F6.1°C 54% Calm Calm -- 29.92 in1013.2 mb 0.00 in0.0 mm 0.00 in0.0 mm 0.00 in0.0 mm
12:53 AM 59.7°F15.4°C 43.5°F6.4°C 55% Calm Calm -- 29.92 in1013.2 mb 0.00 in0.0 mm 0.00 in0.0 mm 0.00 in0.0 mm
12:58 AM 59.4°F15.2°C 44.1°F6.7°C 57% Calm Calm 2.0 mph3.2 kmh 29.92 in1013.2 mb 0.00 in0.0 mm 0.00 in0.0 mm 0.00 in0.0 mm
01:03 AM 58.8°F14.9°C 43.7°F6.5°C 57% Calm Calm -- 29.92 in1013.2 mb 0.00 in0.0 mm 0.00 in0.0 mm 0.00 in0.0 mm
01:08 AM 58.6°F14.8°C 43.9°F6.6°C 58% Calm Calm -- 29.92 in1013.2 mb 0.00 in0.0 mm 0.00 in0.0 mm 0.00 in0.0 mm
01:13 AM 58.6°F14.8°C 43.9°F6.6°C 58% Calm Calm -- 29.91 in1012.9 mb 0.00 in0.0 mm 0.00 in0.0 mm 0.00 in0.0 mm
01:18 AM 58.6°F14.8°C 43.9°F6.6°C 58% Calm Calm -- 29.91 in1012.9 mb 0.00 in0.0 mm 0.00 in0.0 mm 0.00 in0.0 mm
01:23 AM 58.8°F14.9°C 44.6°F7.0°C 59% Calm Calm -- 29.91 in1012.9 mb 0.00 in0.0 mm 0.00 in0.0 mm 0.00 in0.0 mm
01:28 AM 58.8°F14.9°C 44.1°F6.7°C 58% Calm Calm -- 29.91 in1012.9 mb 0.00 in0.0 mm 0.00 in0.0 mm 0.00 in0.0 mm
01:33 AM 58.5°F14.7°C 44.2°F6.8°C 59% Calm Calm -- 29.91 in1012.9 mb 0.00 in0.0 mm 0.00 in0.0 mm 0.00 in0.0 mm
01:38 AM 58.3°F14.6°C 44.1°F6.7°C 59% Calm Calm -- 29.91 in1012.9 mb 0.00 in0.0 mm 0.00 in0.0 mm 0.00 in0.0 mm
01:43 AM 57.7°F14.3°C 43.5°F6.4°C 59% Calm Calm -- 29.91 in1012.9 mb 0.00 in0.0 mm 0.00 in0.0 mm 0.00 in0.0 mm
01:48 AM 57.7°F14.3°C 43.9°F6.6°C 60% Calm Calm -- 29.91 in1012.9 mb 0.00 in0.0 mm 0.00 in0.0 mm 0.00 in0.0 mm
01:53 AM 57.9°F14.4°C 43.7°F6.5°C 59% Calm Calm -- 29.91 in1012.9 mb 0.00 in0.0 mm 0.00 in0.0 mm 0.00 in0.0 mm
01:58 AM 57.9°F14.4°C 43.7°F6.5°C 59% Calm Calm -- 29.90 in1012.5 mb 0.00 in0.0 mm 0.00 in0.0 mm 0.00 in0.0 mm
02:03 AM 58.1°F14.5°C 44.2°F6.8°C 60% Calm Calm -- 29.91 in1012.9 mb 0.00 in0.0 mm 0.00 in0.0 mm 0.00 in0.0 mm
02:08 AM 58.1°F14.5°C 44.2°F6.8°C 60% Calm Calm 1.1 mph1.8 kmh 29.90 in1012.5 mb 0.00 in0.0 mm 0.00 in0.0 mm 0.00 in0.0 mm
02:13 AM 57.9°F14.4°C 44.1°F6.7°C 60% Calm Calm -- 29.90 in1012.5 mb 0.00 in0.0 mm 0.00 in0.0 mm 0.00 in0.0 mm
02:18 AM 57.9°F14.4°C 44.1°F6.7°C 60% Calm Calm -- 29.90 in1012.5 mb 0.00 in0.0 mm 0.00 in0.0 mm 0.00 in0.0 mm
02:23 AM 58.1°F14.5°C 43.9°F6.6°C 59% Calm Calm -- 29.90 in1012.5 mb 0.00 in0.0 mm 0.00 in0.0 mm 0.00 in0.0 mm
02:28 AM 58.3°F14.6°C 43.5°F6.4°C 58% Calm Calm -- 29.90 in1012.5 mb 0.00 in0.0 mm 0.00 in0.0 mm 0.00 in0.0 mm
02:33 AM 58.3°F14.6°C 43.5°F6.4°C 58% Calm Calm -- 29.89 in1012.2 mb 0.00 in0.0 mm 0.00 in0.0 mm 0.00 in0.0 mm
02:38 AM 58.1°F14.5°C 43.0°F6.1°C 57% Calm Calm -- 29.89 in1012.2 mb 0.00 in0.0 mm 0.00 in0.0 mm 0.00 in0.0 mm
02:43 AM 58.3°F14.6°C 42.6°F5.9°C 56% Calm Calm -- 29.89 in1012.2 mb 0.00 in0.0 mm 0.00 in0.0 mm 0.00 in0.0 mm
02:48 AM 58.3°F14.6°C 42.6°F5.9°C 56% Calm Calm -- 29.88 in1011.9 mb 0.00 in0.0 mm 0.00 in0.0 mm 0.00 in0.0 mm
02:53 AM 58.3°F14.6°C 42.6°F5.9°C 56% Calm Calm 2.0 mph3.2 kmh 29.88 in1011.9 mb 0.00 in0.0 mm 0.00 in0.0 mm 0.00 in0.0 mm
02:58 AM 58.3°F14.6°C 42.6°F5.9°C 56% Calm Calm 1.1 mph1.8 kmh 29.88 in1011.9 mb 0.00 in0.0 mm 0.00 in0.0 mm 0.00 in0.0 mm
03:03 AM 58.3°F14.6°C 42.6°F5.9°C 56% Calm Calm 1.1 mph1.8 kmh 29.88 in1011.9 mb 0.00 in0.0 mm 0.00 in0.0 mm 0.00 in0.0 mm
03:08 AM 58.3°F14.6°C 42.6°F5.9°C 56% 0.2 mph E0.3 kmh E 1.1 mph1.8 kmh 29.88 in1011.9 mb 0.00 in0.0 mm 0.00 in0.0 mm 0.00 in0.0 mm
03:13 AM 58.3°F14.6°C 42.3°F5.7°C 55% Calm Calm 1.1 mph1.8 kmh 29.88 in1011.9 mb 0.00 in0.0 mm 0.00 in0.0 mm 0.00 in0.0 mm
03:18 AM 58.3°F14.6°C 42.3°F5.7°C 55% 0.2 mph E0.3 kmh E 1.1 mph1.8 kmh 29.88 in1011.9 mb 0.00 in0.0 mm 0.00 in0.0 mm 0.00 in0.0 mm
03:23 AM 58.5°F14.7°C 42.4°F5.8°C 55% Calm Calm 2.0 mph3.2 kmh 29.88 in1011.9 mb 0.00 in0.0 mm 0.00 in0.0 mm 0.00 in0.0 mm
03:28 AM 58.5°F14.7°C 42.4°F5.8°C 55% Calm Calm 1.1 mph1.8 kmh 29.88 in1011.9 mb 0.00 in0.0 mm 0.00 in0.0 mm 0.00 in0.0 mm
03:33 AM 58.5°F14.7°C 42.8°F6.0°C 56% Calm Calm -- 29.87 in1011.5 mb 0.00 in0.0 mm 0.00 in0.0 mm 0.00 in0.0 mm
03:38 AM 58.3°F14.6°C 42.6°F5.9°C 56% Calm Calm -- 29.88 in1011.9 mb 0.00 in0.0 mm 0.00 in0.0 mm 0.00 in0.0 mm
03:43 AM 58.1°F14.5°C 43.0°F6.1°C 57% Calm Calm 1.1 mph1.8 kmh 29.88 in1011.9 mb 0.00 in0.0 mm 0.00 in0.0 mm 0.00 in0.0 mm
03:48 AM 58.1°F14.5°C 43.0°F6.1°C 57% Calm Calm 1.1 mph1.8 kmh 29.88 in1011.9 mb 0.00 in0.0 mm 0.00 in0.0 mm 0.00 in0.0 mm
03:53 AM 57.9°F14.4°C 42.8°F6.0°C 57% Calm Calm -- 29.88 in1011.9 mb 0.00 in0.0 mm 0.00 in0.0 mm 0.00 in0.0 mm
03:58 AM 57.9°F14.4°C 43.2°F6.2°C 58% Calm Calm -- 29.88 in1011.9 mb 0.00 in0.0 mm 0.00 in0.0 mm 0.00 in0.0 mm
04:03 AM 57.6°F14.2°C 43.0°F6.1°C 58% Calm Calm -- 29.88 in1011.9 mb 0.00 in0.0 mm 0.00 in0.0 mm 0.00 in0.0 mm
04:08 AM 57.4°F14.1°C 42.8°F6.0°C 58% Calm Calm -- 29.88 in1011.9 mb 0.00 in0.0 mm 0.00 in0.0 mm 0.00 in0.0 mm
04:13 AM 57.4°F14.1°C 42.8°F6.0°C 58% Calm Calm 1.1 mph1.8 kmh 29.88 in1011.9 mb 0.00 in0.0 mm 0.00 in0.0 mm 0.00 in0.0 mm
04:18 AM 57.6°F14.2°C 43.0°F6.1°C 58% Calm Calm -- 29.88 in1011.9 mb 0.00 in0.0 mm 0.00 in0.0 mm 0.00 in0.0 mm
04:23 AM 57.6°F14.2°C 43.0°F6.1°C 58% Calm Calm -- 29.88 in1011.9 mb 0.00 in0.0 mm 0.00 in0.0 mm 0.00 in0.0 mm
04:28 AM 57.4°F14.1°C 42.3°F5.7°C 57% Calm Calm -- 29.88 in1011.9 mb 0.00 in0.0 mm 0.00 in0.0 mm 0.00 in0.0 mm
04:33 AM 57.4°F14.1°C 42.3°F5.7°C 57% Calm Calm -- 29.88 in1011.9 mb 0.00 in0.0 mm 0.00 in0.0 mm 0.00 in0.0 mm
04:38 AM 57.6°F14.2°C 42.4°F5.8°C 57% Calm Calm 1.1 mph1.8 kmh 29.88 in1011.9 mb 0.00 in0.0 mm 0.00 in0.0 mm 0.00 in0.0 mm
04:43 AM 57.7°F14.3°C 42.1°F5.6°C 56% Calm Calm 1.1 mph1.8 kmh 29.88 in1011.9 mb 0.00 in0.0 mm 0.00 in0.0 mm 0.00 in0.0 mm
04:48 AM 57.9°F14.4°C 42.3°F5.7°C 56% Calm Calm 1.1 mph1.8 kmh 29.88 in1011.9 mb 0.00 in0.0 mm 0.00 in0.0 mm 0.00 in0.0 mm
04:53 AM 57.9°F14.4°C 42.3°F5.7°C 56% Calm Calm -- 29.88 in1011.9 mb 0.00 in0.0 mm 0.00 in0.0 mm 0.00 in0.0 mm
04:58 AM 57.9°F14.4°C 42.3°F5.7°C 56% Calm Calm 1.1 mph1.8 kmh 29.88 in1011.9 mb 0.00 in0.0 mm 0.00 in0.0 mm 0.00 in0.0 mm
05:03 AM 57.9°F14.4°C 42.3°F5.7°C 56% Calm Calm 1.1 mph1.8 kmh 29.88 in1011.9 mb 0.00 in0.0 mm 0.00 in0.0 mm 0.00 in0.0 mm
05:08 AM 57.7°F14.3°C 42.1°F5.6°C 56% Calm Calm -- 29.88 in1011.9 mb 0.00 in0.0 mm 0.00 in0.0 mm 0.00 in0.0 mm
05:13 AM 57.7°F14.3°C 42.1°F5.6°C 56% Calm Calm 1.1 mph1.8 kmh 29.88 in1011.9 mb 0.00 in0.0 mm 0.00 in0.0 mm 0.00 in0.0 mm
05:18 AM 57.7°F14.3°C 42.1°F5.6°C 56% Calm Calm 1.1 mph1.8 kmh 29.88 in1011.9 mb 0.00 in0.0 mm 0.00 in0.0 mm 0.00 in0.0 mm
05:23 AM 57.7°F14.3°C 42.1°F5.6°C 56% Calm Calm -- 29.88 in1011.9 mb 0.00 in0.0 mm 0.00 in0.0 mm 0.00 in0.0 mm
05:28 AM 57.6°F14.2°C 41.5°F5.3°C 55% Calm Calm 1.1 mph1.8 kmh 29.88 in1011.9 mb 0.00 in0.0 mm 0.00 in0.0 mm 0.00 in0.0 mm
05:33 AM 57.6°F14.2°C 41.9°F5.5°C 56% Calm Calm -- 29.88 in1011.9 mb 0.00 in0.0 mm 0.00 in0.0 mm 0.00 in0.0 mm
05:38 AM 57.6°F14.2°C 41.9°F5.5°C 56% Calm Calm -- 29.88 in1011.9 mb 0.00 in0.0 mm 0.00 in0.0 mm 0.00 in0.0 mm
05:43 AM 57.6°F14.2°C 41.9°F5.5°C 56% Calm Calm -- 29.88 in1011.9 mb 0.00 in0.0 mm 0.00 in0.0 mm 0.00 in0.0 mm
05:48 AM 57.6°F14.2°C 41.9°F5.5°C 56% Calm Calm -- 29.88 in1011.9 mb 0.00 in0.0 mm 0.00 in0.0 mm 0.00 in0.0 mm
05:53 AM 57.4°F14.1°C 41.4°F5.2°C 55% Calm Calm -- 29.88 in1011.9 mb 0.00 in0.0 mm 0.00 in0.0 mm 0.00 in0.0 mm
05:58 AM 57.6°F14.2°C 41.0°F5.0°C 54% Calm Calm 1.1 mph1.8 kmh 29.88 in1011.9 mb 0.00 in0.0 mm 0.00 in0.0 mm 0.00 in0.0 mm
06:03 AM 58.1°F14.5°C 41.0°F5.0°C 53% Calm Calm 1.1 mph1.8 kmh 29.88 in1011.9 mb 0.00 in0.0 mm 0.00 in0.0 mm 0.00 in0.0 mm
06:08 AM 58.5°F14.7°C 40.5°F4.7°C 51% Calm Calm 1.1 mph1.8 kmh 29.88 in1011.9 mb 0.00 in0.0 mm 0.00 in0.0 mm 0.00 in0.0 mm
06:13 AM 58.8°F14.9°C 40.8°F4.9°C 51% Calm Calm -- 29.88 in1011.9 mb 0.00 in0.0 mm 0.00 in0.0 mm 0.00 in0.0 mm
06:18 AM 58.8°F14.9°C 40.8°F4.9°C 51% 0.2 mph E0.3 kmh E 1.1 mph1.8 kmh 29.89 in1012.2 mb 0.00 in0.0 mm 0.00 in0.0 mm 0.00 in0.0 mm
06:23 AM 58.8°F14.9°C 40.8°F4.9°C 51% Calm Calm -- 29.89 in1012.2 mb 0.00 in0.0 mm 0.00 in0.0 mm 0.00 in0.0 mm
06:28 AM 58.8°F14.9°C 40.8°F4.9°C 51% Calm Calm -- 29.89 in1012.2 mb 0.00 in0.0 mm 0.00 in0.0 mm 0.00 in0.0 mm
06:33 AM 58.8°F14.9°C 40.8°F4.9°C 51% Calm Calm -- 29.89 in1012.2 mb 0.00 in0.0 mm 0.00 in0.0 mm 0.00 in0.0 mm
06:38 AM 58.8°F14.9°C 40.8°F4.9°C 51% Calm Calm -- 29.89 in1012.2 mb 0.00 in0.0 mm 0.00 in0.0 mm 0.00 in0.0 mm
06:43 AM 58.8°F14.9°C 41.2°F5.1°C 52% Calm Calm 1.1 mph1.8 kmh 29.89 in1012.2 mb 0.00 in0.0 mm 0.00 in0.0 mm 0.00 in0.0 mm
06:48 AM 58.8°F14.9°C 41.2°F5.1°C 52% Calm Calm -- 29.89 in1012.2 mb 0.00 in0.0 mm 0.00 in0.0 mm 0.00 in0.0 mm
06:53 AM 58.6°F14.8°C 41.5°F5.3°C 53% Calm Calm -- 29.89 in1012.2 mb 0.00 in0.0 mm 0.00 in0.0 mm 0.00 in0.0 mm
06:58 AM 58.6°F14.8°C 41.5°F5.3°C 53% Calm Calm -- 29.89 in1012.2 mb 0.00 in0.0 mm 0.00 in0.0 mm 0.00 in0.0 mm
07:03 AM 58.6°F14.8°C 41.5°F5.3°C 53% Calm Calm -- 29.89 in1012.2 mb 0.00 in0.0 mm 0.00 in0.0 mm 0.00 in0.0 mm
07:08 AM 58.6°F14.8°C 41.5°F5.3°C 53% Calm Calm 1.1 mph1.8 kmh 29.89 in1012.2 mb 0.00 in0.0 mm 0.00 in0.0 mm 0.00 in0.0 mm
07:13 AM 58.8°F14.9°C 42.3°F5.7°C 54% Calm Calm 2.0 mph3.2 kmh 29.90 in1012.5 mb 0.00 in0.0 mm 0.00 in0.0 mm 0.00 in0.0 mm
07:18 AM 58.6°F14.8°C 42.1°F5.6°C 54% Calm Calm -- 29.90 in1012.5 mb 0.00 in0.0 mm 0.00 in0.0 mm 0.00 in0.0 mm
07:23 AM 58.6°F14.8°C 41.5°F5.3°C 53% 0.2 mph E0.3 kmh E 1.1 mph1.8 kmh 29.90 in1012.5 mb 0.00 in0.0 mm 0.00 in0.0 mm 0.00 in0.0 mm
07:28 AM 58.8°F14.9°C 41.7°F5.4°C 53% Calm Calm 1.1 mph1.8 kmh 29.90 in1012.5 mb 0.00 in0.0 mm 0.00 in0.0 mm 0.00 in0.0 mm
07:33 AM 58.6°F14.8°C 42.1°F5.6°C 54% Calm Calm -- 29.90 in1012.5 mb 0.00 in0.0 mm 0.00 in0.0 mm 0.00 in0.0 mm
07:38 AM 58.6°F14.8°C 42.1°F5.6°C 54% Calm Calm -- 29.91 in1012.9 mb 0.00 in0.0 mm 0.00 in0.0 mm 0.00 in0.0 mm
07:43 AM 58.8°F14.9°C 41.7°F5.4°C 53% 0.2 mph E0.3 kmh E 1.1 mph1.8 kmh 29.91 in1012.9 mb 0.00 in0.0 mm 0.00 in0.0 mm 0.00 in0.0 mm
07:48 AM 59.2°F15.1°C 42.1°F5.6°C 53% 0.2 mph NE0.3 kmh NE 1.1 mph1.8 kmh 29.91 in1012.9 mb 0.00 in0.0 mm 0.00 in0.0 mm 0.00 in0.0 mm
07:53 AM 59.4°F15.2°C 42.3°F5.7°C 53% Calm Calm -- 29.91 in1012.9 mb 0.00 in0.0 mm 0.00 in0.0 mm 0.00 in0.0 mm
07:58 AM 59.5°F15.3°C 42.4°F5.8°C 53% Calm Calm -- 29.91 in1012.9 mb 0.00 in0.0 mm 0.00 in0.0 mm 0.00 in0.0 mm
08:03 AM 59.9°F15.5°C 43.2°F6.2°C 54% Calm Calm -- 29.91 in1012.9 mb 0.00 in0.0 mm 0.00 in0.0 mm 0.00 in0.0 mm
08:08 AM 60.1°F15.6°C 43.9°F6.6°C 55% Calm Calm -- 29.91 in1012.9 mb 0.00 in0.0 mm 0.00 in0.0 mm 0.00 in0.0 mm
08:13 AM 60.4°F15.8°C 43.2°F6.2°C 53% Calm Calm -- 29.91 in1012.9 mb 0.00 in0.0 mm 0.00 in0.0 mm 0.00 in0.0 mm
08:18 AM 61.0°F16.1°C 43.2°F6.2°C 52% Calm Calm -- 29.91 in1012.9 mb 0.00 in0.0 mm 0.00 in0.0 mm 0.00 in0.0 mm
08:23 AM 61.3°F16.3°C 43.0°F6.1°C 51% Calm Calm -- 29.91 in1012.9 mb 0.00 in0.0 mm 0.00 in0.0 mm 0.00 in0.0 mm
08:28 AM 62.1°F16.7°C 42.6°F5.9°C 49% Calm Calm 2.0 mph3.2 kmh 29.91 in1012.9 mb 0.00 in0.0 mm 0.00 in0.0 mm 0.00 in0.0 mm
08:33 AM 62.8°F17.1°C 43.3°F6.3°C 49% Calm Calm -- 29.91 in1012.9 mb 0.00 in0.0 mm 0.00 in0.0 mm 0.00 in0.0 mm
08:38 AM 63.5°F17.5°C 43.0°F6.1°C 47% Calm Calm 1.1 mph1.8 kmh 29.91 in1012.9 mb 0.00 in0.0 mm 0.00 in0.0 mm 0.00 in0.0 mm
08:43 AM 64.0°F17.8°C 43.3°F6.3°C 47% 0.4 mph NNW0.6 kmh NNW 2.0 mph3.2 kmh 29.91 in1012.9 mb 0.00 in0.0 mm 0.00 in0.0 mm 0.00 in0.0 mm
08:48 AM 64.9°F18.3°C 44.2°F6.8°C 47% Calm Calm -- 29.91 in1012.9 mb 0.00 in0.0 mm 0.00 in0.0 mm 0.00 in0.0 mm
08:53 AM 65.7°F18.7°C 43.7°F6.5°C 45% Calm Calm 1.1 mph1.8 kmh 29.91 in1012.9 mb 0.00 in0.0 mm 0.00 in0.0 mm 0.00 in0.0 mm
08:58 AM 66.7°F19.3°C 43.0°F6.1°C 42% Calm Calm 1.1 mph1.8 kmh 29.91 in1012.9 mb 0.00 in0.0 mm 0.00 in0.0 mm 0.00 in0.0 mm
09:03 AM 67.8°F19.9°C 42.6°F5.9°C 40% Calm Calm 3.1 mph5.0 kmh 29.91 in1012.9 mb 0.00 in0.0 mm 0.00 in0.0 mm 0.00 in0.0 mm
09:08 AM 68.7°F20.4°C 42.1°F5.6°C 38% 0.4 mph SSE0.6 kmh SSE 1.1 mph1.8 kmh 29.91 in1012.9 mb 0.00 in0.0 mm 0.00 in0.0 mm 0.00 in0.0 mm
09:13 AM 69.4°F20.8°C 42.8°F6.0°C 38% Calm Calm -- 29.91 in1012.9 mb 0.00 in0.0 mm 0.00 in0.0 mm 0.00 in0.0 mm
09:18 AM 70.2°F21.2°C 42.6°F5.9°C 37% 0.9 mph ENE1.4 kmh ENE 2.0 mph3.2 kmh 29.91 in1012.9 mb 0.00 in0.0 mm 0.00 in0.0 mm 0.00 in0.0 mm
09:23 AM 70.9°F21.6°C 43.3°F6.3°C 37% Calm Calm 2.0 mph3.2 kmh 29.91 in1012.9 mb 0.00 in0.0 mm 0.00 in0.0 mm 0.00 in0.0 mm
09:28 AM 71.4°F21.9°C 43.2°F6.2°C 36% Calm Calm 1.1 mph1.8 kmh 29.91 in1012.9 mb 0.00 in0.0 mm 0.00 in0.0 mm 0.00 in0.0 mm
09:33 AM 72.1°F22.3°C 43.7°F6.5°C 36% Calm Calm -- 29.91 in1012.9 mb 0.00 in0.0 mm 0.00 in0.0 mm 0.00 in0.0 mm
09:38 AM 73.0°F22.8°C 43.0°F6.1°C 34% Calm Calm -- 29.91 in1012.9 mb 0.00 in0.0 mm 0.00 in0.0 mm 0.00 in0.0 mm
09:43 AM 73.8°F23.2°C 42.8°F6.0°C 33% Calm Calm 1.1 mph1.8 kmh 29.91 in1012.9 mb 0.00 in0.0 mm 0.00 in0.0 mm 0.00 in0.0 mm
09:48 AM 74.5°F23.6°C 43.5°F6.4°C 33% Calm Calm -- 29.91 in1012.9 mb 0.00 in0.0 mm 0.00 in0.0 mm 0.00 in0.0 mm
09:53 AM 75.0°F23.9°C 42.3°F5.7°C 31% Calm Calm 1.1 mph1.8 kmh 29.91 in1012.9 mb 0.00 in0.0 mm 0.00 in0.0 mm 0.00 in0.0 mm
09:58 AM 75.4°F24.1°C 41.7°F5.4°C 30% Calm Calm -- 29.91 in1012.9 mb 0.00 in0.0 mm 0.00 in0.0 mm 0.00 in0.0 mm
10:03 AM 75.7°F24.3°C 41.2°F5.1°C 29% 0.2 mph SSE0.3 kmh SSE 2.0 mph3.2 kmh 29.91 in1012.9 mb 0.00 in0.0 mm 0.00 in0.0 mm 0.00 in0.0 mm
10:08 AM 75.7°F24.3°C 41.2°F5.1°C 29% Calm Calm 2.0 mph3.2 kmh 29.91 in1012.9 mb 0.00 in0.0 mm 0.00 in0.0 mm 0.00 in0.0 mm
10:13 AM 75.9°F24.4°C 41.4°F5.2°C 29% Calm Calm -- 29.91 in1012.9 mb 0.00 in0.0 mm 0.00 in0.0 mm 0.00 in0.0 mm
10:18 AM 76.6°F24.8°C 42.8°F6.0°C 30% Calm Calm 1.1 mph1.8 kmh 29.91 in1012.9 mb 0.00 in0.0 mm 0.00 in0.0 mm 0.00 in0.0 mm
10:23 AM 77.4°F25.2°C 40.8°F4.9°C 27% Calm Calm 2.0 mph3.2 kmh 29.91 in1012.9 mb 0.00 in0.0 mm 0.00 in0.0 mm 0.00 in0.0 mm
10:28 AM 77.9°F25.5°C 40.3°F4.6°C 26% Calm Calm 1.1 mph1.8 kmh 29.91 in1012.9 mb 0.00 in0.0 mm 0.00 in0.0 mm 0.00 in0.0 mm
10:33 AM 78.3°F25.7°C 42.4°F5.8°C 28% Calm Calm 1.1 mph1.8 kmh 29.91 in1012.9 mb 0.00 in0.0 mm 0.00 in0.0 mm 0.00 in0.0 mm
10:38 AM 78.8°F26.0°C 42.1°F5.6°C 27% Calm Calm 1.1 mph1.8 kmh 29.90 in1012.5 mb 0.00 in0.0 mm 0.00 in0.0 mm 0.00 in0.0 mm
10:43 AM 79.3°F26.3°C 40.5°F4.7°C 25% Calm Calm 1.1 mph1.8 kmh 29.90 in1012.5 mb 0.00 in0.0 mm 0.00 in0.0 mm 0.00 in0.0 mm
10:48 AM 79.9°F26.6°C 39.9°F4.4°C 24% 0.4 mph NW0.6 kmh NW 3.1 mph5.0 kmh 29.90 in1012.5 mb 0.00 in0.0 mm 0.00 in0.0 mm 0.00 in0.0 mm
10:53 AM 79.0°F26.1°C 39.2°F4.0°C 24% Calm Calm 5.4 mph8.7 kmh 29.90 in1012.5 mb 0.00 in0.0 mm 0.00 in0.0 mm 0.00 in0.0 mm
10:58 AM 79.3°F26.3°C 39.4°F4.1°C 24% Calm Calm 1.1 mph1.8 kmh 29.90 in1012.5 mb 0.00 in0.0 mm 0.00 in0.0 mm 0.00 in0.0 mm
11:03 AM 79.7°F26.5°C 38.7°F3.7°C 23% Calm Calm 1.1 mph1.8 kmh 29.89 in1012.2 mb 0.00 in0.0 mm 0.00 in0.0 mm 0.00 in0.0 mm
11:08 AM 79.9°F26.6°C 38.8°F3.8°C 23% 0.2 mph W0.3 kmh W 2.0 mph3.2 kmh 29.89 in1012.2 mb 0.00 in0.0 mm 0.00 in0.0 mm 0.00 in0.0 mm
11:13 AM 79.9°F26.6°C 38.8°F3.8°C 23% 0.2 mph W0.3 kmh W 5.4 mph8.7 kmh 29.89 in1012.2 mb 0.00 in0.0 mm 0.00 in0.0 mm 0.00 in0.0 mm
11:18 AM 79.9°F26.6°C 39.9°F4.4°C 24% 0.9 mph W1.4 kmh W 4.3 mph6.9 kmh 29.89 in1012.2 mb 0.00 in0.0 mm 0.00 in0.0 mm 0.00 in0.0 mm
11:23 AM 80.4°F26.9°C 41.4°F5.2°C 25% Calm Calm 3.1 mph5.0 kmh 29.88 in1011.9 mb 0.00 in0.0 mm 0.00 in0.0 mm 0.00 in0.0 mm
11:28 AM 80.2°F26.8°C 40.1°F4.5°C 24% 1.1 mph SW1.8 kmh SW 5.4 mph8.7 kmh 29.88 in1011.9 mb 0.00 in0.0 mm 0.00 in0.0 mm 0.00 in0.0 mm
11:33 AM 80.8°F27.1°C 40.6°F4.8°C 24% 4.5 mph S7.2 kmh S 6.3 mph10.1 kmh 29.88 in1011.9 mb 0.00 in0.0 mm 0.00 in0.0 mm 0.00 in0.0 mm
11:38 AM 80.8°F27.1°C 39.6°F4.2°C 23% 1.6 mph SSW2.6 kmh SSW 7.4 mph11.9 kmh 29.88 in1011.9 mb 0.00 in0.0 mm 0.00 in0.0 mm 0.00 in0.0 mm
11:43 AM 80.4°F26.9°C 46.9°F8.3°C 31% 6.9 mph S11.1 kmh S 10.5 mph16.9 kmh 29.88 in1011.9 mb 0.00 in0.0 mm 0.00 in0.0 mm 0.00 in0.0 mm
11:48 AM 79.2°F26.2°C 47.7°F8.7°C 33% 7.4 mph SW11.9 kmh SW 12.8 mph20.6 kmh 29.88 in1011.9 mb 0.00 in0.0 mm 0.00 in0.0 mm 0.00 in0.0 mm
11:53 AM 78.3°F25.7°C 49.1°F9.5°C 36% 7.2 mph SW11.6 kmh SW 10.5 mph16.9 kmh 29.88 in1011.9 mb 0.00 in0.0 mm 0.00 in0.0 mm 0.00 in0.0 mm
11:58 AM 77.5°F25.3°C 50.0°F10.0°C 38% 8.1 mph SW13.0 kmh SW 12.8 mph20.6 kmh 29.88 in1011.9 mb 0.00 in0.0 mm 0.00 in0.0 mm 0.00 in0.0 mm
12:04 PM 76.8°F24.9°C 50.7°F10.4°C 40% 5.8 mph SW9.3 kmh SW 10.5 mph16.9 kmh 29.88 in1011.9 mb 0.00 in0.0 mm 0.00 in0.0 mm 0.00 in0.0 mm
12:09 PM 76.6°F24.8°C 50.5°F10.3°C 40% 5.6 mph SW9.0 kmh SW 9.6 mph15.4 kmh 29.87 in1011.5 mb 0.00 in0.0 mm 0.00 in0.0 mm 0.00 in0.0 mm
12:14 PM 76.8°F24.9°C 50.0°F10.0°C 39% 4.7 mph WSW7.6 kmh WSW 9.6 mph15.4 kmh 29.87 in1011.5 mb 0.00 in0.0 mm 0.00 in0.0 mm 0.00 in0.0 mm
12:19 PM 77.0°F25.0°C 50.2°F10.1°C 39% 6.3 mph WSW10.1 kmh WSW 10.5 mph16.9 kmh 29.87 in1011.5 mb 0.00 in0.0 mm 0.00 in0.0 mm 0.00 in0.0 mm
12:24 PM 76.5°F24.7°C 50.4°F10.2°C 40% 6.0 mph SSW9.7 kmh SSW 10.5 mph16.9 kmh 29.86 in1011.2 mb 0.00 in0.0 mm 0.00 in0.0 mm 0.00 in0.0 mm
12:29 PM 76.5°F24.7°C 49.6°F9.8°C 39% 7.2 mph SW11.6 kmh SW 10.5 mph16.9 kmh 29.86 in1011.2 mb 0.00 in0.0 mm 0.00 in0.0 mm 0.00 in0.0 mm
12:34 PM 75.9°F24.4°C 49.1°F9.5°C 39% 7.8 mph SW12.6 kmh SW 11.6 mph18.7 kmh 29.86 in1011.2 mb 0.00 in0.0 mm 0.00 in0.0 mm 0.00 in0.0 mm
12:39 PM 76.3°F24.6°C 50.2°F10.1°C 40% 6.5 mph SW10.5 kmh SW 10.5 mph16.9 kmh 29.86 in1011.2 mb 0.00 in0.0 mm 0.00 in0.0 mm 0.00 in0.0 mm
12:44 PM 77.0°F25.0°C 50.2°F10.1°C 39% 6.5 mph SW10.5 kmh SW 9.6 mph15.4 kmh 29.86 in1011.2 mb 0.00 in0.0 mm 0.00 in0.0 mm 0.00 in0.0 mm
12:49 PM 77.2°F25.1°C 50.4°F10.2°C 39% 6.9 mph SW11.1 kmh SW 11.6 mph18.7 kmh 29.86 in1011.2 mb 0.00 in0.0 mm 0.00 in0.0 mm 0.00 in0.0 mm
12:54 PM 77.0°F25.0°C 49.5°F9.7°C 38% 6.3 mph S10.1 kmh S 12.8 mph20.6 kmh 29.86 in1011.2 mb 0.00 in0.0 mm 0.00 in0.0 mm 0.00 in0.0 mm
12:59 PM 77.4°F25.2°C 49.1°F9.5°C 37% 7.4 mph SSW11.9 kmh SSW 13.9 mph22.4 kmh 29.85 in1010.8 mb 0.00 in0.0 mm 0.00 in0.0 mm 0.00 in0.0 mm
01:04 PM 77.7°F25.4°C 48.6°F9.2°C 36% 7.8 mph SW12.6 kmh SW 11.6 mph18.7 kmh 29.85 in1010.8 mb 0.00 in0.0 mm 0.00 in0.0 mm 0.00 in0.0 mm
01:09 PM 77.7°F25.4°C 48.6°F9.2°C 36% 6.7 mph SSW10.8 kmh SSW 11.6 mph18.7 kmh 29.85 in1010.8 mb 0.00 in0.0 mm 0.00 in0.0 mm 0.00 in0.0 mm
01:14 PM 78.1°F25.6°C 49.6°F9.8°C 37% 6.7 mph SW10.8 kmh SW 11.6 mph18.7 kmh 29.85 in1010.8 mb 0.00 in0.0 mm 0.00 in0.0 mm 0.00 in0.0 mm
01:19 PM 77.7°F25.4°C 49.5°F9.7°C 37% 6.7 mph SSW10.8 kmh SSW 13.9 mph22.4 kmh 29.85 in1010.8 mb 0.00 in0.0 mm 0.00 in0.0 mm 0.00 in0.0 mm
01:24 PM 77.9°F25.5°C 48.7°F9.3°C 36% 8.1 mph SW13.0 kmh SW 12.8 mph20.6 kmh 29.85 in1010.8 mb 0.00 in0.0 mm 0.00 in0.0 mm 0.00 in0.0 mm
01:29 PM 77.2°F25.1°C 48.2°F9.0°C 36% 9.4 mph SW15.1 kmh SW 14.8 mph23.8 kmh 29.85 in1010.8 mb 0.00 in0.0 mm 0.00 in0.0 mm 0.00 in0.0 mm
01:34 PM 76.5°F24.7°C 47.5°F8.6°C 36% 9.6 mph SW15.4 kmh SW 14.8 mph23.8 kmh 29.85 in1010.8 mb 0.00 in0.0 mm 0.00 in0.0 mm 0.00 in0.0 mm
01:39 PM 75.7°F24.3°C 46.9°F8.3°C 36% 9.4 mph SW15.1 kmh SW 12.8 mph20.6 kmh 29.85 in1010.8 mb 0.00 in0.0 mm 0.00 in0.0 mm 0.00 in0.0 mm
01:44 PM 75.9°F24.4°C 47.8°F8.8°C 37% 8.9 mph SW14.3 kmh SW 14.8 mph23.8 kmh 29.85 in1010.8 mb 0.00 in0.0 mm 0.00 in0.0 mm 0.00 in0.0 mm
01:49 PM 75.4°F24.1°C 46.6°F8.1°C 36% 9.8 mph SW15.8 kmh SW 14.8 mph23.8 kmh 29.85 in1010.8 mb 0.00 in0.0 mm 0.00 in0.0 mm 0.00 in0.0 mm
01:54 PM 75.0°F23.9°C 44.8°F7.1°C 34% 7.6 mph SW12.2 kmh SW 15.9 mph25.6 kmh 29.85 in1010.8 mb 0.00 in0.0 mm 0.00 in0.0 mm 0.00 in0.0 mm
01:59 PM 75.4°F24.1°C 43.5°F6.4°C 32% 9.2 mph SW14.8 kmh SW 12.8 mph20.6 kmh 29.85 in1010.8 mb 0.00 in0.0 mm 0.00 in0.0 mm 0.00 in0.0 mm
02:04 PM 75.6°F24.2°C 44.4°F6.9°C 33% 8.1 mph SSW13.0 kmh SSW 13.9 mph22.4 kmh 29.85 in1010.8 mb 0.00 in0.0 mm 0.00 in0.0 mm 0.00 in0.0 mm
02:09 PM 75.4°F24.1°C 45.1°F7.3°C 34% 8.1 mph SW13.0 kmh SW 11.6 mph18.7 kmh 29.85 in1010.8 mb 0.00 in0.0 mm 0.00 in0.0 mm 0.00 in0.0 mm
02:14 PM 75.6°F24.2°C 45.1°F7.3°C 34% 7.6 mph WSW12.2 kmh WSW 11.6 mph18.7 kmh 29.85 in1010.8 mb 0.00 in0.0 mm 0.00 in0.0 mm 0.00 in0.0 mm
02:19 PM 75.4°F24.1°C 45.1°F7.3°C 34% 7.4 mph SW11.9 kmh SW 11.6 mph18.7 kmh 29.85 in1010.8 mb 0.00 in0.0 mm 0.00 in0.0 mm 0.00 in0.0 mm
02:24 PM 75.6°F24.2°C 46.8°F8.2°C 36% 7.2 mph SSW11.6 kmh SSW 11.6 mph18.7 kmh 29.85 in1010.8 mb 0.00 in0.0 mm 0.00 in0.0 mm 0.00 in0.0 mm
02:29 PM 75.4°F24.1°C 45.9°F7.7°C 35% 6.0 mph WSW9.7 kmh WSW 11.6 mph18.7 kmh 29.84 in1010.5 mb 0.00 in0.0 mm 0.00 in0.0 mm 0.00 in0.0 mm
02:34 PM 75.6°F24.2°C 46.0°F7.8°C 35% 7.2 mph SW11.6 kmh SW 11.6 mph18.7 kmh 29.84 in1010.5 mb 0.00 in0.0 mm 0.00 in0.0 mm 0.00 in0.0 mm
02:39 PM 75.6°F24.2°C 46.0°F7.8°C 35% 6.5 mph WSW10.5 kmh WSW 14.8 mph23.8 kmh 29.84 in1010.5 mb 0.00 in0.0 mm 0.00 in0.0 mm 0.00 in0.0 mm
02:44 PM 75.4°F24.1°C 44.2°F6.8°C 33% 6.9 mph SW11.1 kmh SW 11.6 mph18.7 kmh 29.84 in1010.5 mb 0.00 in0.0 mm 0.00 in0.0 mm 0.00 in0.0 mm
02:49 PM 75.4°F24.1°C 44.2°F6.8°C 33% 6.7 mph SSW10.8 kmh SSW 11.6 mph18.7 kmh 29.84 in1010.5 mb 0.00 in0.0 mm 0.00 in0.0 mm 0.00 in0.0 mm
02:54 PM 75.6°F24.2°C 45.1°F7.3°C 34% 6.3 mph SW10.1 kmh SW 11.6 mph18.7 kmh 29.84 in1010.5 mb 0.00 in0.0 mm 0.00 in0.0 mm 0.00 in0.0 mm
02:59 PM 75.4°F24.1°C 44.2°F6.8°C 33% 7.2 mph SW11.6 kmh SW 11.6 mph18.7 kmh 29.84 in1010.5 mb 0.00 in0.0 mm 0.00 in0.0 mm 0.00 in0.0 mm
03:04 PM 75.9°F24.4°C 44.8°F7.1°C 33% 5.4 mph S8.7 kmh S 9.6 mph15.4 kmh 29.84 in1010.5 mb 0.00 in0.0 mm 0.00 in0.0 mm 0.00 in0.0 mm
03:09 PM 75.9°F24.4°C 44.8°F7.1°C 33% 7.8 mph SSE12.6 kmh SSE 12.8 mph20.6 kmh 29.84 in1010.5 mb 0.00 in0.0 mm 0.00 in0.0 mm 0.00 in0.0 mm
03:14 PM 75.7°F24.3°C 44.6°F7.0°C 33% 5.6 mph SW9.0 kmh SW 11.6 mph18.7 kmh 29.84 in1010.5 mb 0.00 in0.0 mm 0.00 in0.0 mm 0.00 in0.0 mm
03:19 PM 75.6°F24.2°C 44.4°F6.9°C 33% 6.3 mph SW10.1 kmh SW 11.6 mph18.7 kmh 29.83 in1010.2 mb 0.00 in0.0 mm 0.00 in0.0 mm 0.00 in0.0 mm
03:24 PM 75.7°F24.3°C 44.6°F7.0°C 33% 6.9 mph SW11.1 kmh SW 12.8 mph20.6 kmh 29.83 in1010.2 mb 0.00 in0.0 mm 0.00 in0.0 mm 0.00 in0.0 mm
03:29 PM 75.6°F24.2°C 44.4°F6.9°C 33% 5.6 mph WSW9.0 kmh WSW 11.6 mph18.7 kmh 29.83 in1010.2 mb 0.00 in0.0 mm 0.00 in0.0 mm 0.00 in0.0 mm
03:34 PM 75.6°F24.2°C 44.4°F6.9°C 33% 5.8 mph WSW9.3 kmh WSW 11.6 mph18.7 kmh 29.83 in1010.2 mb 0.00 in0.0 mm 0.00 in0.0 mm 0.00 in0.0 mm
03:39 PM 75.6°F24.2°C 45.1°F7.3°C 34% 6.9 mph SW11.1 kmh SW 11.6 mph18.7 kmh 29.83 in1010.2 mb 0.00 in0.0 mm 0.00 in0.0 mm 0.00 in0.0 mm
03:44 PM 75.4°F24.1°C 44.2°F6.8°C 33% 6.3 mph SSW10.1 kmh SSW 13.9 mph22.4 kmh 29.83 in1010.2 mb 0.00 in0.0 mm 0.00 in0.0 mm 0.00 in0.0 mm
03:49 PM 75.4°F24.1°C 44.2°F6.8°C 33% 5.8 mph SSW9.3 kmh SSW 12.8 mph20.6 kmh 29.83 in1010.2 mb 0.00 in0.0 mm 0.00 in0.0 mm 0.00 in0.0 mm
03:54 PM 74.8°F23.8°C 42.3°F5.7°C 31% 7.4 mph SSW11.9 kmh SSW 13.9 mph22.4 kmh 29.83 in1010.2 mb 0.00 in0.0 mm 0.00 in0.0 mm 0.00 in0.0 mm
03:59 PM 74.8°F23.8°C 43.0°F6.1°C 32% 7.8 mph SW12.6 kmh SW 11.6 mph18.7 kmh 29.83 in1010.2 mb 0.00 in0.0 mm 0.00 in0.0 mm 0.00 in0.0 mm
04:04 PM 74.7°F23.7°C 42.1°F5.6°C 31% 6.9 mph SSW11.1 kmh SSW 11.6 mph18.7 kmh 29.83 in1010.2 mb 0.00 in0.0 mm 0.00 in0.0 mm 0.00 in0.0 mm
04:09 PM 74.1°F23.4°C 44.8°F7.1°C 35% 4.5 mph WSW7.2 kmh WSW 11.6 mph18.7 kmh 29.83 in1010.2 mb 0.00 in0.0 mm 0.00 in0.0 mm 0.00 in0.0 mm
04:14 PM 74.5°F23.6°C 45.9°F7.7°C 36% 4.5 mph W7.2 kmh W 9.6 mph15.4 kmh 29.83 in1010.2 mb 0.00 in0.0 mm 0.00 in0.0 mm 0.00 in0.0 mm
04:19 PM 74.5°F23.6°C 45.0°F7.2°C 35% 6.0 mph SW9.7 kmh SW 10.5 mph16.9 kmh 29.83 in1010.2 mb 0.00 in0.0 mm 0.00 in0.0 mm 0.00 in0.0 mm
04:24 PM 73.9°F23.3°C 46.0°F7.8°C 37% 7.6 mph SW12.2 kmh SW 9.6 mph15.4 kmh 29.82 in1009.8 mb 0.00 in0.0 mm 0.00 in0.0 mm 0.00 in0.0 mm
04:29 PM 73.8°F23.2°C 48.6°F9.2°C 41% 4.7 mph WSW7.6 kmh WSW 9.6 mph15.4 kmh 29.83 in1010.2 mb 0.00 in0.0 mm 0.00 in0.0 mm 0.00 in0.0 mm
04:34 PM 73.6°F23.1°C 50.9°F10.5°C 45% 5.6 mph WSW9.0 kmh WSW 8.5 mph13.7 kmh 29.83 in1010.2 mb 0.00 in0.0 mm 0.00 in0.0 mm 0.00 in0.0 mm
04:39 PM 73.2°F22.9°C 50.0°F10.0°C 44% 5.6 mph SW9.0 kmh SW 9.6 mph15.4 kmh 29.83 in1010.2 mb 0.00 in0.0 mm 0.00 in0.0 mm 0.00 in0.0 mm
04:44 PM 72.9°F22.7°C 50.9°F10.5°C 46% 4.9 mph SW7.9 kmh SW 9.6 mph15.4 kmh 29.83 in1010.2 mb 0.00 in0.0 mm 0.00 in0.0 mm 0.00 in0.0 mm
04:49 PM 72.3°F22.4°C 51.4°F10.8°C 48% 6.7 mph SW10.8 kmh SW 9.6 mph15.4 kmh 29.83 in1010.2 mb 0.00 in0.0 mm 0.00 in0.0 mm 0.00 in0.0 mm
04:54 PM 72.0°F22.2°C 51.3°F10.7°C 48% 4.7 mph SSW7.6 kmh SSW 9.6 mph15.4 kmh 29.83 in1010.2 mb 0.00 in0.0 mm 0.00 in0.0 mm 0.00 in0.0 mm
04:59 PM 72.3°F22.4°C 52.7°F11.5°C 50% 3.6 mph SSW5.8 kmh SSW 7.4 mph11.9 kmh 29.83 in1010.2 mb 0.00 in0.0 mm 0.00 in0.0 mm 0.00 in0.0 mm
05:04 PM 72.3°F22.4°C 49.8°F9.9°C 45% 5.8 mph SW9.3 kmh SW 8.5 mph13.7 kmh 29.83 in1010.2 mb 0.00 in0.0 mm 0.00 in0.0 mm 0.00 in0.0 mm
05:09 PM 72.0°F22.2°C 50.7°F10.4°C 47% 5.1 mph SW8.2 kmh SW 7.4 mph11.9 kmh 29.84 in1010.5 mb 0.00 in0.0 mm 0.00 in0.0 mm 0.00 in0.0 mm
05:14 PM 72.0°F22.2°C 51.3°F10.7°C 48% 4.3 mph SW6.9 kmh SW 8.5 mph13.7 kmh 29.83 in1010.2 mb 0.00 in0.0 mm 0.00 in0.0 mm 0.00 in0.0 mm
05:19 PM 71.8°F22.1°C 49.8°F9.9°C 46% 4.3 mph SW6.9 kmh SW 6.3 mph10.1 kmh 29.84 in1010.5 mb 0.00 in0.0 mm 0.00 in0.0 mm 0.00 in0.0 mm
05:24 PM 71.4°F21.9°C 51.3°F10.7°C 49% 3.8 mph W6.1 kmh W 8.5 mph13.7 kmh 29.84 in1010.5 mb 0.00 in0.0 mm 0.00 in0.0 mm 0.00 in0.0 mm
05:29 PM 70.9°F21.6°C 52.3°F11.3°C 52% 3.8 mph SW6.1 kmh SW 6.3 mph10.1 kmh 29.84 in1010.5 mb 0.00 in0.0 mm 0.00 in0.0 mm 0.00 in0.0 mm
05:34 PM 70.5°F21.4°C 52.5°F11.4°C 53% 2.9 mph WSW4.7 kmh WSW 6.3 mph10.1 kmh 29.84 in1010.5 mb 0.00 in0.0 mm 0.00 in0.0 mm 0.00 in0.0 mm
05:39 PM 70.0°F21.1°C 51.6°F10.9°C 52% 4.5 mph SW7.2 kmh SW 6.3 mph10.1 kmh 29.84 in1010.5 mb 0.00 in0.0 mm 0.00 in0.0 mm 0.00 in0.0 mm
05:44 PM 69.4°F20.8°C 52.5°F11.4°C 55% 3.1 mph SW5.0 kmh SW 6.3 mph10.1 kmh 29.84 in1010.5 mb 0.00 in0.0 mm 0.00 in0.0 mm 0.00 in0.0 mm
05:49 PM 69.3°F20.7°C 53.8°F12.1°C 58% 4.0 mph SW6.4 kmh SW 6.3 mph10.1 kmh 29.84 in1010.5 mb 0.00 in0.0 mm 0.00 in0.0 mm 0.00 in0.0 mm
05:54 PM 68.9°F20.5°C 54.0°F12.2°C 59% 3.6 mph SW5.8 kmh SW 6.3 mph10.1 kmh 29.84 in1010.5 mb 0.00 in0.0 mm 0.00 in0.0 mm 0.00 in0.0 mm
05:59 PM 68.2°F20.1°C 54.1°F12.3°C 61% 4.0 mph SW6.4 kmh SW 6.3 mph10.1 kmh 29.84 in1010.5 mb 0.00 in0.0 mm 0.00 in0.0 mm 0.00 in0.0 mm
06:04 PM 67.6°F19.8°C 55.0°F12.8°C 64% 4.3 mph SSW6.9 kmh SSW 7.4 mph11.9 kmh 29.84 in1010.5 mb 0.00 in0.0 mm 0.00 in0.0 mm 0.00 in0.0 mm
06:09 PM 67.5°F19.7°C 55.8°F13.2°C 66% 3.1 mph SW5.0 kmh SW 7.4 mph11.9 kmh 29.84 in1010.5 mb 0.00 in0.0 mm 0.00 in0.0 mm 0.00 in0.0 mm
06:14 PM 66.9°F19.4°C 55.2°F12.9°C 66% 3.4 mph SW5.5 kmh SW 5.4 mph8.7 kmh 29.84 in1010.5 mb 0.00 in0.0 mm 0.00 in0.0 mm 0.00 in0.0 mm
06:19 PM 66.4°F19.1°C 55.0°F12.8°C 67% 1.3 mph SW2.1 kmh SW 6.3 mph10.1 kmh 29.84 in1010.5 mb 0.00 in0.0 mm 0.00 in0.0 mm 0.00 in0.0 mm
06:24 PM 66.0°F18.9°C 55.2°F12.9°C 68% 3.8 mph SSW6.1 kmh SSW 5.4 mph8.7 kmh 29.84 in1010.5 mb 0.00 in0.0 mm 0.00 in0.0 mm 0.00 in0.0 mm
06:29 PM 65.8°F18.8°C 55.8°F13.2°C 70% 3.1 mph SW5.0 kmh SW 5.4 mph8.7 kmh 29.84 in1010.5 mb 0.00 in0.0 mm 0.00 in0.0 mm 0.00 in0.0 mm
06:34 PM 65.5°F18.6°C 55.4°F13.0°C 70% 2.5 mph SW4.0 kmh SW 6.3 mph10.1 kmh 29.84 in1010.5 mb 0.00 in0.0 mm 0.00 in0.0 mm 0.00 in0.0 mm
06:39 PM 65.3°F18.5°C 55.6°F13.1°C 71% 1.1 mph SW1.8 kmh SW 3.1 mph5.0 kmh 29.84 in1010.5 mb 0.00 in0.0 mm 0.00 in0.0 mm 0.00 in0.0 mm
06:44 PM 65.1°F18.4°C 55.4°F13.0°C 71% 1.8 mph SW2.9 kmh SW 4.3 mph6.9 kmh 29.84 in1010.5 mb 0.00 in0.0 mm 0.00 in0.0 mm 0.00 in0.0 mm
06:49 PM 65.1°F18.4°C 55.4°F13.0°C 71% Calm Calm 1.1 mph1.8 kmh 29.84 in1010.5 mb 0.00 in0.0 mm 0.00 in0.0 mm 0.00 in0.0 mm
06:54 PM 65.1°F18.4°C 55.4°F13.0°C 71% Calm Calm 1.1 mph1.8 kmh 29.83 in1010.2 mb 0.00 in0.0 mm 0.00 in0.0 mm 0.00 in0.0 mm
06:59 PM 64.9°F18.3°C 54.9°F12.7°C 70% 0.9 mph SE1.4 kmh SE 2.0 mph3.2 kmh 29.84 in1010.5 mb 0.00 in0.0 mm 0.00 in0.0 mm 0.00 in0.0 mm
07:04 PM 64.8°F18.2°C 54.7°F12.6°C 70% 0.2 mph SE0.3 kmh SE 3.1 mph5.0 kmh 29.84 in1010.5 mb 0.00 in0.0 mm 0.00 in0.0 mm 0.00 in0.0 mm
07:09 PM 64.6°F18.1°C 54.5°F12.5°C 70% 0.9 mph SW1.4 kmh SW 3.1 mph5.0 kmh 29.84 in1010.5 mb 0.00 in0.0 mm 0.00 in0.0 mm 0.00 in0.0 mm
07:14 PM 64.4°F18.0°C 55.2°F12.9°C 72% 0.7 mph SE1.1 kmh SE 3.1 mph5.0 kmh 29.84 in1010.5 mb 0.00 in0.0 mm 0.00 in0.0 mm 0.00 in0.0 mm
07:19 PM 64.2°F17.9°C 55.0°F12.8°C 72% 1.3 mph S2.1 kmh S 3.1 mph5.0 kmh 29.84 in1010.5 mb 0.00 in0.0 mm 0.00 in0.0 mm 0.00 in0.0 mm
07:24 PM 64.0°F17.8°C 55.2°F12.9°C 73% Calm Calm 3.1 mph5.0 kmh 29.84 in1010.5 mb 0.00 in0.0 mm 0.00 in0.0 mm 0.00 in0.0 mm
07:29 PM 63.9°F17.7°C 55.4°F13.0°C 74% 1.8 mph SSW2.9 kmh SSW 3.1 mph5.0 kmh 29.84 in1010.5 mb 0.00 in0.0 mm 0.00 in0.0 mm 0.00 in0.0 mm
07:34 PM 63.9°F17.7°C 55.4°F13.0°C 74% 1.1 mph SSW1.8 kmh SSW 3.1 mph5.0 kmh 29.84 in1010.5 mb 0.00 in0.0 mm 0.00 in0.0 mm 0.00 in0.0 mm
07:39 PM 63.9°F17.7°C 55.8°F13.2°C 75% 1.1 mph SW1.8 kmh SW 4.3 mph6.9 kmh 29.84 in1010.5 mb 0.00 in0.0 mm 0.00 in0.0 mm 0.00 in0.0 mm
07:44 PM 63.7°F17.6°C 56.3°F13.5°C 77% Calm Calm 4.3 mph6.9 kmh 29.84 in1010.5 mb 0.00 in0.0 mm 0.00 in0.0 mm 0.00 in0.0 mm
07:49 PM 63.3°F17.4°C 56.7°F13.7°C 79% 0.9 mph W1.4 kmh W 2.0 mph3.2 kmh 29.84 in1010.5 mb 0.00 in0.0 mm 0.00 in0.0 mm 0.00 in0.0 mm
07:54 PM 63.0°F17.2°C 56.7°F13.7°C 80% 2.0 mph W3.2 kmh W 4.3 mph6.9 kmh 29.84 in1010.5 mb 0.00 in0.0 mm 0.00 in0.0 mm 0.00 in0.0 mm
07:59 PM 62.8°F17.1°C 57.2°F14.0°C 82% 0.4 mph WSW0.6 kmh WSW 3.1 mph5.0 kmh 29.84 in1010.5 mb 0.00 in0.0 mm 0.00 in0.0 mm 0.00 in0.0 mm
08:04 PM 62.6°F17.0°C 57.0°F13.9°C 82% 0.4 mph SSW0.6 kmh SSW 3.1 mph5.0 kmh 29.84 in1010.5 mb 0.00 in0.0 mm 0.00 in0.0 mm 0.00 in0.0 mm
08:09 PM 62.4°F16.9°C 57.2°F14.0°C 83% 2.0 mph SW3.2 kmh SW 3.1 mph5.0 kmh 29.85 in1010.8 mb 0.00 in0.0 mm 0.00 in0.0 mm 0.00 in0.0 mm
08:14 PM 62.2°F16.8°C 57.0°F13.9°C 83% 0.4 mph WSW0.6 kmh WSW 3.1 mph5.0 kmh 29.85 in1010.8 mb 0.00 in0.0 mm 0.00 in0.0 mm 0.00 in0.0 mm
08:19 PM 62.1°F16.7°C 57.2°F14.0°C 84% 1.3 mph SSW2.1 kmh SSW 4.3 mph6.9 kmh 29.85 in1010.8 mb 0.00 in0.0 mm 0.00 in0.0 mm 0.00 in0.0 mm
08:24 PM 62.1°F16.7°C 56.8°F13.8°C 83% Calm Calm 3.1 mph5.0 kmh 29.85 in1010.8 mb 0.00 in0.0 mm 0.00 in0.0 mm 0.00 in0.0 mm
08:29 PM 61.9°F16.6°C 56.7°F13.7°C 83% Calm Calm 3.1 mph5.0 kmh 29.85 in1010.8 mb 0.00 in0.0 mm 0.00 in0.0 mm 0.00 in0.0 mm
08:34 PM 61.9°F16.6°C 57.0°F13.9°C 84% Calm Calm -- 29.85 in1010.8 mb 0.00 in0.0 mm 0.00 in0.0 mm 0.00 in0.0 mm
08:39 PM 61.5°F16.4°C 56.3°F13.5°C 83% Calm Calm -- 29.85 in1010.8 mb 0.00 in0.0 mm 0.00 in0.0 mm 0.00 in0.0 mm
08:44 PM 61.3°F16.3°C 56.1°F13.4°C 83% Calm Calm -- 29.85 in1010.8 mb 0.00 in0.0 mm 0.00 in0.0 mm 0.00 in0.0 mm
08:49 PM 61.2°F16.2°C 56.3°F13.5°C 84% Calm Calm -- 29.85 in1010.8 mb 0.00 in0.0 mm 0.00 in0.0 mm 0.00 in0.0 mm
08:54 PM 61.0°F16.1°C 56.1°F13.4°C 84% Calm Calm -- 29.85 in1010.8 mb 0.00 in0.0 mm 0.00 in0.0 mm 0.00 in0.0 mm
08:59 PM 60.6°F15.9°C 56.1°F13.4°C 85% Calm Calm -- 29.85 in1010.8 mb 0.00 in0.0 mm 0.00 in0.0 mm 0.00 in0.0 mm
09:04 PM 60.4°F15.8°C 55.9°F13.3°C 85% Calm Calm -- 29.85 in1010.8 mb 0.00 in0.0 mm 0.00 in0.0 mm 0.00 in0.0 mm
09:09 PM 60.3°F15.7°C 55.8°F13.2°C 85% Calm Calm -- 29.85 in1010.8 mb 0.00 in0.0 mm 0.00 in0.0 mm 0.00 in0.0 mm
09:14 PM 60.3°F15.7°C 55.8°F13.2°C 85% Calm Calm -- 29.85 in1010.8 mb 0.00 in0.0 mm 0.00 in0.0 mm 0.00 in0.0 mm
09:19 PM 60.1°F15.6°C 55.9°F13.3°C 86% Calm Calm -- 29.85 in1010.8 mb 0.00 in0.0 mm 0.00 in0.0 mm 0.00 in0.0 mm
09:24 PM 59.9°F15.5°C 55.8°F13.2°C 86% Calm Calm -- 29.86 in1011.2 mb 0.00 in0.0 mm 0.00 in0.0 mm 0.00 in0.0 mm
09:29 PM 59.7°F15.4°C 55.6°F13.1°C 86% Calm Calm -- 29.86 in1011.2 mb 0.00 in0.0 mm 0.00 in0.0 mm 0.00 in0.0 mm
09:34 PM 59.5°F15.3°C 55.4°F13.0°C 86% Calm Calm -- 29.86 in1011.2 mb 0.00 in0.0 mm 0.00 in0.0 mm 0.00 in0.0 mm
09:39 PM 59.5°F15.3°C 55.4°F13.0°C 86% Calm Calm -- 29.86 in1011.2 mb 0.00 in0.0 mm 0.00 in0.0 mm 0.00 in0.0 mm
09:44 PM 59.4°F15.2°C 55.2°F12.9°C 86% Calm Calm -- 29.86 in1011.2 mb 0.00 in0.0 mm 0.00 in0.0 mm 0.00 in0.0 mm
09:49 PM 59.4°F15.2°C 55.2°F12.9°C 86% Calm Calm -- 29.86 in1011.2 mb 0.00 in0.0 mm 0.00 in0.0 mm 0.00 in0.0 mm
09:54 PM 59.2°F15.1°C 55.4°F13.0°C 87% Calm Calm -- 29.86 in1011.2 mb 0.00 in0.0 mm 0.00 in0.0 mm 0.00 in0.0 mm
09:59 PM 59.2°F15.1°C 55.0°F12.8°C 86% Calm Calm -- 29.86 in1011.2 mb 0.00 in0.0 mm 0.00 in0.0 mm 0.00 in0.0 mm
10:04 PM 58.8°F14.9°C 54.7°F12.6°C 86% Calm Calm -- 29.86 in1011.2 mb 0.00 in0.0 mm 0.00 in0.0 mm 0.00 in0.0 mm
10:09 PM 58.8°F14.9°C 55.0°F12.8°C 87% Calm Calm -- 29.87 in1011.5 mb 0.00 in0.0 mm 0.00 in0.0 mm 0.00 in0.0 mm
10:14 PM 59.0°F15.0°C 55.2°F12.9°C 87% Calm Calm -- 29.87 in1011.5 mb 0.00 in0.0 mm 0.00 in0.0 mm 0.00 in0.0 mm
10:19 PM 59.2°F15.1°C 55.4°F13.0°C 87% Calm Calm -- 29.87 in1011.5 mb 0.00 in0.0 mm 0.00 in0.0 mm 0.00 in0.0 mm
10:24 PM 59.4°F15.2°C 55.4°F13.0°C 87% Calm Calm -- 29.87 in1011.5 mb 0.00 in0.0 mm 0.00 in0.0 mm 0.00 in0.0 mm
10:29 PM 59.4°F15.2°C 55.2°F12.9°C 86% Calm Calm -- 29.87 in1011.5 mb 0.00 in0.0 mm 0.00 in0.0 mm 0.00 in0.0 mm
10:34 PM 59.4°F15.2°C 54.9°F12.7°C 85% Calm Calm -- 29.87 in1011.5 mb 0.00 in0.0 mm 0.00 in0.0 mm 0.00 in0.0 mm
10:39 PM 59.0°F15.0°C 54.5°F12.5°C 85% Calm Calm -- 29.88 in1011.9 mb 0.00 in0.0 mm 0.00 in0.0 mm 0.00 in0.0 mm
10:44 PM 58.6°F14.8°C 54.1°F12.3°C 85% Calm Calm -- 29.88 in1011.9 mb 0.00 in0.0 mm 0.00 in0.0 mm 0.00 in0.0 mm
10:49 PM 58.5°F14.7°C 54.3°F12.4°C 86% Calm Calm -- 29.88 in1011.9 mb 0.00 in0.0 mm 0.00 in0.0 mm 0.00 in0.0 mm
10:54 PM 58.3°F14.6°C 54.5°F12.5°C 87% Calm Calm -- 29.88 in1011.9 mb 0.00 in0.0 mm 0.00 in0.0 mm 0.00 in0.0 mm
10:59 PM 57.9°F14.4°C 54.1°F12.3°C 87% Calm Calm -- 29.88 in1011.9 mb 0.00 in0.0 mm 0.00 in0.0 mm 0.00 in0.0 mm
11:04 PM 57.7°F14.3°C 53.6°F12.0°C 86% Calm Calm -- 29.88 in1011.9 mb 0.00 in0.0 mm 0.00 in0.0 mm 0.00 in0.0 mm
11:09 PM 57.6°F14.2°C 53.8°F12.1°C 87% Calm Calm -- 29.88 in1011.9 mb 0.00 in0.0 mm 0.00 in0.0 mm 0.00 in0.0 mm
11:14 PM 57.2°F14.0°C 53.4°F11.9°C 87% Calm Calm -- 29.88 in1011.9 mb 0.00 in0.0 mm 0.00 in0.0 mm 0.00 in0.0 mm
11:19 PM 57.2°F14.0°C 53.6°F12.0°C 88% Calm Calm -- 29.88 in1011.9 mb 0.00 in0.0 mm 0.00 in0.0 mm 0.00 in0.0 mm
11:24 PM 57.6°F14.2°C 54.3°F12.4°C 89% Calm Calm -- 29.88 in1011.9 mb 0.00 in0.0 mm 0.00 in0.0 mm 0.00 in0.0 mm
11:29 PM 57.7°F14.3°C 54.1°F12.3°C 88% Calm Calm -- 29.88 in1011.9 mb 0.00 in0.0 mm 0.00 in0.0 mm 0.00 in0.0 mm
11:34 PM 57.7°F14.3°C 54.0°F12.2°C 87% Calm Calm -- 29.88 in1011.9 mb 0.00 in0.0 mm 0.00 in0.0 mm 0.00 in0.0 mm
11:39 PM 57.6°F14.2°C 53.8°F12.1°C 87% Calm Calm -- 29.88 in1011.9 mb 0.00 in0.0 mm 0.00 in0.0 mm 0.00 in0.0 mm
11:44 PM 57.6°F14.2°C 53.8°F12.1°C 87% Calm Calm -- 29.88 in1011.9 mb 0.00 in0.0 mm 0.00 in0.0 mm 0.00 in0.0 mm
11:49 PM 57.4°F14.1°C 53.6°F12.0°C 87% Calm Calm -- 29.88 in1011.9 mb 0.00 in0.0 mm 0.00 in0.0 mm 0.00 in0.0 mm
11:54 PM 57.4°F14.1°C 53.6°F12.0°C 87% Calm Calm -- 29.88 in1011.9 mb 0.00 in0.0 mm 0.00 in0.0 mm 0.00 in0.0 mm
11:59 PM 57.0°F13.9°C 53.2°F11.8°C 87% Calm Calm -- 29.88 in1011.9 mb 0.00 in0.0 mm 0.00 in0.0 mm 0.00 in0.0 mm